Time;durP1;ratioP1;P1;durP2;ratioP2;P2;SDS_P1;SDS_P2;PMS_P1;PMS_P2;Temp;Humidity;BMP_temperature;BMP_pressure;BME280_temperature;BME280_humidity;BME280_pressure;Samples;Min_cycle;Max_cycle;Signal;HPM_P1;HPM_P2
2023/07/31 00:05:47;;;;;;;2.83;1.40;;;20.30;67.50;;;;;;21028862;28;20720;-66
2023/07/31 00:15:49;;;;;;;6.37;1.70;;;20.30;67.80;;;;;;21012285;28;20274;-66
2023/07/31 00:25:51;;;;;;;4.90;1.70;;;20.30;68.20;;;;;;21001762;28;20238;-66
2023/07/31 00:35:52;;;;;;;5.37;1.67;;;20.20;68.20;;;;;;21000163;28;20238;-66
2023/07/31 00:45:54;;;;;;;3.73;1.77;;;20.10;69.10;;;;;;20999422;28;20211;-69
2023/07/31 00:55:57;;;;;;;3.83;1.80;;;20.00;69.70;;;;;;20998476;28;20244;-66
2023/07/31 01:06:22;;;;;;;4.07;1.60;;;20.00;70.20;;;;;;20997843;28;20317;-64
2023/07/31 01:16:25;;;;;;;5.00;2.00;;;19.90;70.60;;;;;;20997421;28;20706;-64
2023/07/31 01:26:36;;;;;;;2.80;1.67;;;19.80;71.20;;;;;;20997420;28;20267;-67
2023/07/31 01:36:38;;;;;;;4.60;1.63;;;19.70;71.70;;;;;;20996190;28;20240;-64
2023/07/31 01:46:40;;;;;;;2.87;1.80;;;19.60;72.30;;;;;;20995881;28;20206;-68
2023/07/31 01:56:42;;;;;;;4.07;2.00;;;19.60;72.80;;;;;;20995661;28;20242;-68
2023/07/31 02:06:44;;;;;;;4.10;1.80;;;19.60;73.30;;;;;;21007678;28;20325;-69
2023/07/31 02:16:46;;;;;;;5.73;2.33;;;19.60;73.70;;;;;;21011500;28;20596;-69
2023/07/31 02:26:47;;;;;;;3.17;1.80;;;19.50;74.10;;;;;;21011054;28;20207;-69
2023/07/31 02:36:49;;;;;;;7.97;2.13;;;19.40;74.70;;;;;;21010370;28;20230;-65
2023/07/31 02:46:51;;;;;;;3.97;2.30;;;19.40;75.30;;;;;;21008797;28;20211;-66
2023/07/31 02:56:52;;;;;;;10.30;2.10;;;19.30;75.80;;;;;;21008469;28;20239;-67
2023/07/31 03:06:54;;;;;;;5.97;1.90;;;19.30;76.30;;;;;;21007484;28;20329;-70
2023/07/31 03:16:56;;;;;;;4.00;1.87;;;19.20;76.50;;;;;;21009217;28;20269;-69
2023/07/31 03:26:58;;;;;;;4.13;1.93;;;19.20;77.20;;;;;;21045360;28;20221;-69
2023/07/31 03:36:59;;;;;;;4.90;1.90;;;19.30;77.50;;;;;;21021826;28;20772;-69
2023/07/31 03:47:01;;;;;;;6.63;2.10;;;19.20;77.70;;;;;;21017519;28;20209;-69
2023/07/31 03:57:03;;;;;;;3.90;2.30;;;19.30;78.00;;;;;;21041813;28;20250;-69
2023/07/31 04:07:05;;;;;;;8.10;3.37;;;19.20;78.40;;;;;;21022719;28;20333;-68
2023/07/31 04:17:07;;;;;;;5.80;2.23;;;19.20;78.60;;;;;;21028893;28;20326;-65
2023/07/31 04:27:13;;;;;;;5.60;2.30;;;19.20;78.80;;;;;;21000536;28;20264;-64
2023/07/31 04:37:14;;;;;;;5.67;2.77;;;19.20;79.10;;;;;;21000155;28;20609;-65
2023/07/31 04:47:16;;;;;;;9.30;2.40;;;19.10;79.30;;;;;;21042757;28;20214;-69
2023/07/31 04:57:18;;;;;;;4.90;2.50;;;19.20;79.40;;;;;;20999062;28;20238;-67
2023/07/31 05:07:19;;;;;;;5.87;2.30;;;19.30;79.20;;;;;;20997843;28;20318;-70
2023/07/31 05:17:21;;;;;;;5.37;2.40;;;19.50;79.20;;;;;;20997020;28;20315;-69
2023/07/31 05:27:23;;;;;;;5.27;2.20;;;19.60;79.20;;;;;;20996811;28;20534;-66
2023/07/31 05:37:27;;;;;;;7.10;2.53;;;19.60;79.10;;;;;;20996199;28;20235;-70
2023/07/31 05:47:29;;;;;;;5.97;2.23;;;19.60;79.10;;;;;;20996411;28;20227;-67
2023/07/31 05:57:31;;;;;;;6.13;3.10;;;19.60;79.00;;;;;;20995433;28;20693;-69
2023/07/31 06:07:33;;;;;;;6.47;2.07;;;19.70;78.80;;;;;;21013201;28;20233;-68
2023/07/31 06:17:35;;;;;;;4.40;1.90;;;19.90;78.30;;;;;;20993863;28;20278;-68
2023/07/31 06:27:36;;;;;;;4.50;2.13;;;20.00;77.90;;;;;;21024111;28;20228;-72
2023/07/31 06:37:40;;;;;;;10.17;2.47;;;19.90;77.70;;;;;;21121248;28;20252;-69
2023/07/31 06:47:42;;;;;;;5.73;2.57;;;19.90;77.60;;;;;;21160271;28;20319;-68
2023/07/31 06:57:44;;;;;;;5.50;2.40;;;20.10;77.70;;;;;;21176162;28;20310;-70
2023/07/31 07:07:45;;;;;;;5.10;2.20;;;20.10;77.50;;;;;;21156291;28;20276;-70
2023/07/31 07:17:47;;;;;;;4.80;2.20;;;20.30;77.10;;;;;;21047500;28;20238;-70
2023/07/31 07:27:49;;;;;;;5.37;2.30;;;20.50;76.80;;;;;;21090334;28;20734;-71
2023/07/31 07:37:50;;;;;;;5.53;2.43;;;20.60;76.60;;;;;;21088618;28;20748;-68
2023/07/31 07:47:54;;;;;;;4.80;2.20;;;20.60;76.60;;;;;;21087760;28;20216;-69
2023/07/31 07:57:55;;;;;;;7.07;3.37;;;20.90;76.30;;;;;;21033613;28;20235;-70
2023/07/31 08:07:57;;;;;;;6.10;2.30;;;21.30;75.70;;;;;;21013919;28;20643;-70
2023/07/31 08:17:59;;;;;;;6.77;2.60;;;21.30;75.60;;;;;;21001855;28;20718;-71
2023/07/31 08:28:01;;;;;;;6.97;3.97;;;21.20;75.70;;;;;;21001118;28;20572;-70
2023/07/31 08:38:03;;;;;;;5.67;2.63;;;21.10;75.90;;;;;;20999889;28;20834;-70
2023/07/31 08:48:05;;;;;;;6.30;2.33;;;21.40;75.90;;;;;;21010288;28;20204;-70
2023/07/31 08:58:07;;;;;;;6.93;2.40;;;21.60;75.40;;;;;;20998237;28;20231;-71
2023/07/31 09:08:11;;;;;;;10.83;2.57;;;21.80;75.10;;;;;;21008908;28;20231;-72
2023/07/31 09:18:17;;;;;;;4.53;2.40;;;22.00;74.80;;;;;;21007598;28;20270;-70
2023/07/31 09:28:18;;;;;;;7.57;2.40;;;22.00;74.20;;;;;;20997418;28;20211;-69
2023/07/31 09:38:20;;;;;;;4.27;2.30;;;22.10;74.50;;;;;;21060840;28;20239;-62
2023/07/31 09:48:27;;;;;;;11.53;7.20;;;22.40;74.00;;;;;;21074983;28;20722;-67
2023/07/31 09:58:30;;;;;;;9.00;2.73;;;22.50;73.50;;;;;;21081027;28;20320;-69
2023/07/31 10:08:36;;;;;;;5.50;2.40;;;22.40;72.40;;;;;;21112008;28;20228;-71
2023/07/31 10:18:39;;;;;;;5.50;3.10;;;22.50;72.20;;;;;;21057930;28;20227;-67
2023/07/31 10:28:42;;;;;;;6.43;3.50;;;22.30;72.00;;;;;;21079941;28;20210;-70
2023/07/31 10:38:44;;;;;;;10.03;4.17;;;22.30;72.50;;;;;;21094763;28;20238;-67
2023/07/31 10:49:00;;;;;;;13.60;4.57;;;22.30;72.20;;;;;;21092937;28;20569;-69
2023/07/31 10:59:02;;;;;;;7.47;2.70;;;22.50;71.90;;;;;;21045028;28;20230;-68
2023/07/31 11:09:06;;;;;;;5.40;2.30;;;22.60;71.50;;;;;;21012891;28;20239;-69
2023/07/31 11:19:08;;;;;;;6.50;2.40;;;22.90;70.70;;;;;;21095440;28;20682;-69
2023/07/31 11:29:13;;;;;;;7.93;2.77;;;23.00;70.30;;;;;;21022829;28;20655;-71
2023/07/31 11:39:15;;;;;;;5.00;2.70;;;23.00;69.00;;;;;;21019976;28;20321;-63
2023/07/31 11:49:17;;;;;;;6.77;3.43;;;23.10;68.30;;;;;;21033541;28;20204;-69
2023/07/31 11:59:19;;;;;;;6.77;3.07;;;23.20;67.50;;;;;;21141632;28;20238;-72
2023/07/31 12:09:20;;;;;;;6.77;3.17;;;23.40;66.30;;;;;;21024849;28;20344;-70
2023/07/31 12:19:27;;;;;;;7.03;3.10;;;23.70;65.50;;;;;;21001321;28;20267;-67
2023/07/31 12:29:38;;;;;;;7.13;3.23;;;24.00;65.00;;;;;;21001235;28;20208;-69
2023/07/31 12:39:43;;;;;;;5.63;2.63;;;24.40;63.80;;;;;;21028923;28;20226;-69
2023/07/31 12:49:44;;;;;;;5.73;3.20;;;24.70;63.00;;;;;;21080347;28;20662;-72
2023/07/31 12:59:46;;;;;;;7.13;3.50;;;24.60;62.20;;;;;;21072509;28;20235;-69
2023/07/31 13:09:48;;;;;;;8.03;3.00;;;24.00;63.20;;;;;;21017220;28;20240;-69
2023/07/31 13:19:50;;;;;;;4.57;2.50;;;23.80;66.30;;;;;;21007962;28;20234;-68
2023/07/31 13:29:52;;;;;;;5.53;2.70;;;24.10;66.80;;;;;;20996370;28;20290;-66
2023/07/31 13:39:53;;;;;;;5.07;2.70;;;24.20;66.00;;;;;;20996556;28;20326;-66
2023/07/31 13:49:55;;;;;;;6.20;2.70;;;24.20;64.80;;;;;;21071015;28;20203;-68
2023/07/31 13:59:57;;;;;;;5.97;3.00;;;24.30;63.70;;;;;;21154682;28;20321;-72
2023/07/31 14:09:59;;;;;;;5.80;3.10;;;24.20;63.30;;;;;;21139942;28;20238;-76
2023/07/31 14:20:02;;;;;;;5.87;2.87;;;24.10;63.30;;;;;;21027754;28;20667;-72
2023/07/31 14:30:05;;;;;;;11.00;3.30;;;23.90;63.60;;;;;;21081798;28;20657;-72
2023/07/31 14:40:08;;;;;;;7.50;2.83;;;23.90;64.10;;;;;;21077406;28;20244;-70
2023/07/31 14:50:10;;;;;;;7.37;3.00;;;23.90;64.30;;;;;;21073250;28;20260;-69
2023/07/31 15:00:12;;;;;;;5.37;2.90;;;23.70;64.60;;;;;;21074841;28;20322;-71
2023/07/31 15:10:14;;;;;;;8.60;2.80;;;23.60;65.40;;;;;;21152725;28;20237;-72
2023/07/31 15:20:16;;;;;;;8.57;3.60;;;23.70;65.70;;;;;;21092702;28;20243;-72
2023/07/31 15:30:18;;;;;;;6.63;3.07;;;23.80;66.70;;;;;;21005780;28;20294;-74
2023/07/31 15:40:19;;;;;;;4.83;3.10;;;23.80;66.40;;;;;;21005346;28;20235;-75
2023/07/31 15:50:21;;;;;;;6.13;2.80;;;23.70;67.10;;;;;;21004012;28;20307;-73
2023/07/31 16:00:23;;;;;;;6.93;3.77;;;23.40;67.80;;;;;;21014754;28;20313;-73
2023/07/31 16:10:25;;;;;;;6.57;3.30;;;23.30;68.20;;;;;;21059618;28;20236;-74
2023/07/31 16:20:27;;;;;;;4.20;2.80;;;23.30;68.70;;;;;;21162610;28;20238;-71
2023/07/31 16:30:29;;;;;;;10.63;3.80;;;23.00;69.30;;;;;;21102217;28;20236;-75
2023/07/31 16:40:31;;;;;;;10.90;3.40;;;22.90;69.80;;;;;;21071353;28;20252;-71
2023/07/31 16:50:33;;;;;;;6.97;2.90;;;22.80;70.00;;;;;;21002152;28;20634;-74
2023/07/31 17:00:34;;;;;;;8.47;3.47;;;22.70;70.50;;;;;;20999028;28;20714;-79
2023/07/31 17:10:36;;;;;;;6.07;3.13;;;22.70;71.00;;;;;;21060564;28;20237;-71
2023/07/31 17:20:38;;;;;;;5.37;3.13;;;22.50;71.60;;;;;;21145915;28;20229;-73
2023/07/31 17:30:40;;;;;;;5.53;3.07;;;22.50;71.90;;;;;;21164287;28;20202;-70
2023/07/31 17:40:41;;;;;;;12.50;2.70;;;22.50;72.40;;;;;;21164242;28;20286;-76
2023/07/31 17:50:52;;;;;;;13.37;3.43;;;22.50;72.90;;;;;;21163693;28;20212;-75
2023/07/31 18:00:54;;;;;;;10.33;2.80;;;22.40;73.40;;;;;;21162979;28;20229;-75
2023/07/31 18:10:56;;;;;;;7.93;3.10;;;22.40;73.80;;;;;;21113912;28;20230;-79
2023/07/31 18:20:59;;;;;;;9.20;3.17;;;22.30;74.50;;;;;;21070064;28;20230;-73
2023/07/31 18:31:01;;;;;;;7.63;2.87;;;22.30;75.50;;;;;;21003248;28;20576;-73
2023/07/31 18:41:07;;;;;;;8.97;3.27;;;22.20;76.30;;;;;;20994495;28;20746;-73
2023/07/31 18:51:08;;;;;;;13.60;3.30;;;22.20;76.90;;;;;;21009337;28;20211;-72
2023/07/31 19:01:10;;;;;;;7.40;2.80;;;22.10;77.50;;;;;;21074196;28;20233;-73
2023/07/31 19:11:12;;;;;;;6.53;2.90;;;22.00;78.40;;;;;;21063514;28;20313;-79
2023/07/31 19:21:29;;;;;;;6.87;2.90;;;21.90;79.30;;;;;;21044929;28;20226;-82
2023/07/31 19:31:30;;;;;;;7.33;3.43;;;21.60;81.20;;;;;;21052209;28;20203;-79
2023/07/31 19:41:32;;;;;;;5.77;3.20;;;21.30;83.50;;;;;;21042309;28;20222;-79
2023/07/31 19:51:34;;;;;;;5.80;3.27;;;21.20;85.20;;;;;;21038820;28;20207;-81
2023/07/31 20:01:36;;;;;;;7.47;2.97;;;21.00;87.10;;;;;;21049867;28;20257;-77
2023/07/31 20:11:38;;;;;;;6.37;3.27;;;20.90;89.60;;;;;;21038798;28;20262;-82
2023/07/31 20:21:40;;;;;;;12.63;4.37;;;20.80;90.30;;;;;;21036074;28;20233;-79
2023/07/31 20:31:43;;;;;;;7.07;3.10;;;20.70;91.00;;;;;;21042400;28;20210;-78
2023/07/31 20:41:45;;;;;;;6.60;2.87;;;20.60;91.80;;;;;;21036370;28;20239;-80
2023/07/31 20:51:48;;;;;;;6.67;2.80;;;20.50;92.40;;;;;;21033927;28;20207;-79
2023/07/31 21:01:50;;;;;;;5.17;3.47;;;20.50;93.10;;;;;;21040940;28;20242;-81
2023/07/31 21:11:51;;;;;;;5.23;3.30;;;20.40;93.50;;;;;;21031869;28;20227;-80
2023/07/31 21:21:53;;;;;;;6.43;3.07;;;20.40;93.80;;;;;;21031856;28;20318;-79
2023/07/31 21:31:55;;;;;;;6.90;3.60;;;20.40;94.40;;;;;;21038873;28;20246;-76
2023/07/31 21:41:58;;;;;;;6.90;2.80;;;20.40;94.30;;;;;;21009204;28;20238;-75
2023/07/31 21:52:00;;;;;;;4.80;2.93;;;20.30;94.50;;;;;;20995842;28;20207;-77
2023/07/31 22:02:02;;;;;;;8.23;2.87;;;20.30;95.10;;;;;;20995528;28;20235;-75
2023/07/31 22:12:04;;;;;;;7.07;3.23;;;20.20;95.50;;;;;;20994948;28;20246;-77
2023/07/31 22:22:06;;;;;;;5.50;3.00;;;20.10;95.90;;;;;;21004308;28;20226;-76
2023/07/31 22:32:08;;;;;;;4.20;2.60;;;20.10;96.40;;;;;;21011240;28;20301;-77
2023/07/31 22:42:10;;;;;;;6.87;3.33;;;20.00;96.90;;;;;;21010242;28;20720;-76
2023/07/31 22:52:12;;;;;;;7.10;3.57;;;19.90;97.40;;;;;;21010489;28;20217;-76
2023/07/31 23:02:14;;;;;;;4.03;3.13;;;19.90;98.10;;;;;;21008911;28;20231;-76
2023/07/31 23:12:15;;;;;;;7.23;3.50;;;19.80;98.70;;;;;;21008245;28;20325;-75
2023/07/31 23:22:17;;;;;;;7.03;3.73;;;19.70;99.40;;;;;;21008133;28;20400;-74
2023/07/31 23:32:19;;;;;;;6.37;3.50;;;19.70;99.90;;;;;;21032405;28;20211;-76
2023/07/31 23:42:21;;;;;;;5.90;3.73;;;19.60;99.90;;;;;;21005658;28;20284;-76
2023/07/31 23:52:22;;;;;;;10.97;3.90;;;19.60;99.90;;;;;;21006051;28;20210;-77
